sensor_id;sensor_type;location;lat;lon;timestamp;P1;durP1;ratioP1;P2;durP2;ratioP2
31798;SDS011;18374;51.136;3.502;2022-11-20T00:01:31;66.13;;;28.23;;
31798;SDS011;18374;51.136;3.502;2022-11-20T00:03:59;73.15;;;29.35;;
31798;SDS011;18374;51.136;3.502;2022-11-20T00:06:28;67.78;;;29.40;;
31798;SDS011;18374;51.136;3.502;2022-11-20T00:08:57;71.43;;;29.08;;
31798;SDS011;18374;51.136;3.502;2022-11-20T00:11:27;69.88;;;30.08;;
31798;SDS011;18374;51.136;3.502;2022-11-20T00:13:57;81.20;;;31.38;;
31798;SDS011;18374;51.136;3.502;2022-11-20T00:16:29;71.38;;;29.60;;
31798;SDS011;18374;51.136;3.502;2022-11-20T00:18:58;68.55;;;29.02;;
31798;SDS011;18374;51.136;3.502;2022-11-20T00:21:26;72.10;;;30.38;;
31798;SDS011;18374;51.136;3.502;2022-11-20T00:23:56;63.28;;;28.90;;
31798;SDS011;18374;51.136;3.502;2022-11-20T00:26:25;62.22;;;29.15;;
31798;SDS011;18374;51.136;3.502;2022-11-20T00:28:55;75.50;;;30.42;;
31798;SDS011;18374;51.136;3.502;2022-11-20T00:31:25;73.43;;;32.20;;
31798;SDS011;18374;51.136;3.502;2022-11-20T00:33:54;73.65;;;30.90;;
31798;SDS011;18374;51.136;3.502;2022-11-20T00:36:23;72.60;;;31.50;;
31798;SDS011;18374;51.136;3.502;2022-11-20T00:38:54;81.15;;;31.98;;
31798;SDS011;18374;51.136;3.502;2022-11-20T00:41:24;75.93;;;31.20;;
31798;SDS011;18374;51.136;3.502;2022-11-20T00:43:54;74.80;;;29.98;;
31798;SDS011;18374;51.136;3.502;2022-11-20T00:46:24;74.00;;;31.63;;
31798;SDS011;18374;51.136;3.502;2022-11-20T00:48:54;69.50;;;30.27;;
31798;SDS011;18374;51.136;3.502;2022-11-20T00:51:22;69.10;;;29.27;;
31798;SDS011;18374;51.136;3.502;2022-11-20T00:53:54;66.50;;;29.38;;
31798;SDS011;18374;51.136;3.502;2022-11-20T00:56:27;65.32;;;26.02;;
31798;SDS011;18374;51.136;3.502;2022-11-20T00:58:54;65.07;;;27.90;;
31798;SDS011;18374;51.136;3.502;2022-11-20T01:01:24;62.95;;;26.80;;
31798;SDS011;18374;51.136;3.502;2022-11-20T01:03:57;71.85;;;28.52;;
31798;SDS011;18374;51.136;3.502;2022-11-20T01:06:28;62.97;;;26.55;;
31798;SDS011;18374;51.136;3.502;2022-11-20T01:08:59;65.03;;;28.20;;
31798;SDS011;18374;51.136;3.502;2022-11-20T01:11:34;67.88;;;29.70;;
31798;SDS011;18374;51.136;3.502;2022-11-20T01:14:07;67.13;;;27.92;;
31798;SDS011;18374;51.136;3.502;2022-11-20T01:16:40;68.00;;;29.05;;
31798;SDS011;18374;51.136;3.502;2022-11-20T01:19:12;68.13;;;28.80;;
31798;SDS011;18374;51.136;3.502;2022-11-20T01:21:45;70.10;;;29.00;;
31798;SDS011;18374;51.136;3.502;2022-11-20T01:24:16;67.38;;;27.75;;
31798;SDS011;18374;51.136;3.502;2022-11-20T01:26:46;56.03;;;26.20;;
31798;SDS011;18374;51.136;3.502;2022-11-20T01:29:17;65.05;;;26.92;;
31798;SDS011;18374;51.136;3.502;2022-11-20T01:31:50;64.53;;;27.95;;
31798;SDS011;18374;51.136;3.502;2022-11-20T01:34:20;62.03;;;25.65;;
31798;SDS011;18374;51.136;3.502;2022-11-20T01:36:49;50.80;;;23.55;;
31798;SDS011;18374;51.136;3.502;2022-11-20T01:39:19;50.50;;;23.40;;
31798;SDS011;18374;51.136;3.502;2022-11-20T01:41:51;64.68;;;25.83;;
31798;SDS011;18374;51.136;3.502;2022-11-20T01:44:49;51.38;;;23.30;;
31798;SDS011;18374;51.136;3.502;2022-11-20T01:52:49;63.85;;;27.52;;
31798;SDS011;18374;51.136;3.502;2022-11-20T01:55:23;65.07;;;26.73;;
31798;SDS011;18374;51.136;3.502;2022-11-20T01:57:56;64.97;;;27.15;;
31798;SDS011;18374;51.136;3.502;2022-11-20T02:00:25;67.70;;;27.95;;
31798;SDS011;18374;51.136;3.502;2022-11-20T02:02:55;70.53;;;28.63;;
31798;SDS011;18374;51.136;3.502;2022-11-20T02:05:33;75.38;;;30.33;;
31798;SDS011;18374;51.136;3.502;2022-11-20T02:08:10;73.18;;;31.58;;
31798;SDS011;18374;51.136;3.502;2022-11-20T02:10:39;69.38;;;29.33;;
31798;SDS011;18374;51.136;3.502;2022-11-20T02:13:07;70.22;;;31.27;;
31798;SDS011;18374;51.136;3.502;2022-11-20T02:15:54;67.95;;;27.42;;
31798;SDS011;18374;51.136;3.502;2022-11-20T02:18:21;76.47;;;30.38;;
31798;SDS011;18374;51.136;3.502;2022-11-20T02:20:53;77.30;;;30.75;;
31798;SDS011;18374;51.136;3.502;2022-11-20T02:23:35;78.85;;;29.98;;
31798;SDS011;18374;51.136;3.502;2022-11-20T02:26:16;77.28;;;30.63;;
31798;SDS011;18374;51.136;3.502;2022-11-20T02:28:47;68.95;;;29.70;;
31798;SDS011;18374;51.136;3.502;2022-11-20T02:31:14;77.88;;;31.08;;
31798;SDS011;18374;51.136;3.502;2022-11-20T02:33:42;72.72;;;31.20;;
31798;SDS011;18374;51.136;3.502;2022-11-20T02:36:10;77.03;;;31.25;;
31798;SDS011;18374;51.136;3.502;2022-11-20T02:38:42;72.57;;;31.80;;
31798;SDS011;18374;51.136;3.502;2022-11-20T02:41:10;73.90;;;31.50;;
31798;SDS011;18374;51.136;3.502;2022-11-20T02:43:38;67.80;;;30.08;;
31798;SDS011;18374;51.136;3.502;2022-11-20T02:46:06;66.00;;;29.70;;
31798;SDS011;18374;51.136;3.502;2022-11-20T02:48:35;70.47;;;29.85;;
31798;SDS011;18374;51.136;3.502;2022-11-20T02:51:02;71.68;;;29.38;;
31798;SDS011;18374;51.136;3.502;2022-11-20T02:53:30;68.97;;;30.02;;
31798;SDS011;18374;51.136;3.502;2022-11-20T02:55:58;68.32;;;30.50;;
31798;SDS011;18374;51.136;3.502;2022-11-20T02:58:25;73.05;;;31.42;;
31798;SDS011;18374;51.136;3.502;2022-11-20T03:00:54;71.57;;;30.38;;
31798;SDS011;18374;51.136;3.502;2022-11-20T03:03:22;72.60;;;28.40;;
31798;SDS011;18374;51.136;3.502;2022-11-20T03:05:50;65.60;;;28.67;;
31798;SDS011;18374;51.136;3.502;2022-11-20T03:08:17;64.20;;;29.08;;
31798;SDS011;18374;51.136;3.502;2022-11-20T03:10:45;70.25;;;29.13;;
31798;SDS011;18374;51.136;3.502;2022-11-20T03:13:13;72.07;;;28.50;;
31798;SDS011;18374;51.136;3.502;2022-11-20T03:15:40;64.72;;;29.30;;
31798;SDS011;18374;51.136;3.502;2022-11-20T03:18:08;68.53;;;28.48;;
31798;SDS011;18374;51.136;3.502;2022-11-20T03:20:36;67.53;;;29.15;;
31798;SDS011;18374;51.136;3.502;2022-11-20T03:23:03;78.53;;;30.13;;
31798;SDS011;18374;51.136;3.502;2022-11-20T03:25:31;70.50;;;29.27;;
31798;SDS011;18374;51.136;3.502;2022-11-20T03:27:59;71.00;;;29.02;;
31798;SDS011;18374;51.136;3.502;2022-11-20T03:30:26;67.70;;;28.85;;
31798;SDS011;18374;51.136;3.502;2022-11-20T03:32:56;64.35;;;28.90;;
31798;SDS011;18374;51.136;3.502;2022-11-20T03:35:24;71.55;;;28.90;;
31798;SDS011;18374;51.136;3.502;2022-11-20T03:37:52;72.30;;;29.48;;
31798;SDS011;18374;51.136;3.502;2022-11-20T03:40:20;63.20;;;26.77;;
31798;SDS011;18374;51.136;3.502;2022-11-20T03:42:47;64.38;;;28.88;;
31798;SDS011;18374;51.136;3.502;2022-11-20T03:45:16;63.15;;;28.02;;
31798;SDS011;18374;51.136;3.502;2022-11-20T03:47:44;68.03;;;28.95;;
31798;SDS011;18374;51.136;3.502;2022-11-20T03:50:13;65.07;;;27.75;;
31798;SDS011;18374;51.136;3.502;2022-11-20T03:52:42;64.85;;;27.73;;
31798;SDS011;18374;51.136;3.502;2022-11-20T03:55:10;65.03;;;28.15;;
31798;SDS011;18374;51.136;3.502;2022-11-20T03:57:37;61.83;;;27.38;;
31798;SDS011;18374;51.136;3.502;2022-11-20T04:00:06;70.68;;;29.70;;
31798;SDS011;18374;51.136;3.502;2022-11-20T04:02:34;69.22;;;28.45;;
31798;SDS011;18374;51.136;3.502;2022-11-20T04:05:02;69.80;;;27.48;;
31798;SDS011;18374;51.136;3.502;2022-11-20T04:07:30;67.18;;;28.60;;
31798;SDS011;18374;51.136;3.502;2022-11-20T04:09:58;71.93;;;28.67;;
31798;SDS011;18374;51.136;3.502;2022-11-20T04:12:26;64.60;;;26.88;;
31798;SDS011;18374;51.136;3.502;2022-11-20T04:14:54;65.95;;;27.05;;
31798;SDS011;18374;51.136;3.502;2022-11-20T04:17:21;68.38;;;28.77;;
31798;SDS011;18374;51.136;3.502;2022-11-20T04:19:49;73.97;;;29.20;;
31798;SDS011;18374;51.136;3.502;2022-11-20T04:22:17;68.35;;;28.55;;
31798;SDS011;18374;51.136;3.502;2022-11-20T04:24:45;65.03;;;27.20;;
31798;SDS011;18374;51.136;3.502;2022-11-20T04:27:13;63.05;;;27.85;;
31798;SDS011;18374;51.136;3.502;2022-11-20T04:29:44;64.00;;;27.20;;
31798;SDS011;18374;51.136;3.502;2022-11-20T04:32:11;63.10;;;26.73;;
31798;SDS011;18374;51.136;3.502;2022-11-20T04:34:39;57.47;;;25.58;;
31798;SDS011;18374;51.136;3.502;2022-11-20T04:37:07;60.42;;;25.15;;
31798;SDS011;18374;51.136;3.502;2022-11-20T04:39:35;58.90;;;25.52;;
31798;SDS011;18374;51.136;3.502;2022-11-20T04:42:03;61.63;;;25.85;;
31798;SDS011;18374;51.136;3.502;2022-11-20T04:44:49;58.92;;;23.98;;
31798;SDS011;18374;51.136;3.502;2022-11-20T04:47:17;56.55;;;24.20;;
31798;SDS011;18374;51.136;3.502;2022-11-20T04:49:45;58.30;;;23.83;;
31798;SDS011;18374;51.136;3.502;2022-11-20T04:52:13;58.00;;;25.52;;
31798;SDS011;18374;51.136;3.502;2022-11-20T04:54:41;60.88;;;25.70;;
31798;SDS011;18374;51.136;3.502;2022-11-20T04:57:09;62.75;;;24.75;;
31798;SDS011;18374;51.136;3.502;2022-11-20T04:59:40;60.05;;;24.98;;
31798;SDS011;18374;51.136;3.502;2022-11-20T05:02:09;64.25;;;24.60;;
31798;SDS011;18374;51.136;3.502;2022-11-20T05:04:37;73.90;;;26.88;;
31798;SDS011;18374;51.136;3.502;2022-11-20T05:07:05;71.47;;;28.17;;
31798;SDS011;18374;51.136;3.502;2022-11-20T05:09:33;76.50;;;28.42;;
31798;SDS011;18374;51.136;3.502;2022-11-20T05:12:01;77.65;;;28.90;;
31798;SDS011;18374;51.136;3.502;2022-11-20T05:14:29;80.60;;;27.48;;
31798;SDS011;18374;51.136;3.502;2022-11-20T05:16:57;73.13;;;28.42;;
31798;SDS011;18374;51.136;3.502;2022-11-20T05:19:25;80.90;;;29.65;;
31798;SDS011;18374;51.136;3.502;2022-11-20T05:21:53;70.60;;;26.08;;
31798;SDS011;18374;51.136;3.502;2022-11-20T05:24:20;100.03;;;30.52;;
31798;SDS011;18374;51.136;3.502;2022-11-20T05:26:49;93.10;;;30.27;;
31798;SDS011;18374;51.136;3.502;2022-11-20T05:29:16;81.05;;;28.88;;
31798;SDS011;18374;51.136;3.502;2022-11-20T05:31:45;93.80;;;30.10;;
31798;SDS011;18374;51.136;3.502;2022-11-20T05:34:12;91.82;;;29.52;;
31798;SDS011;18374;51.136;3.502;2022-11-20T05:36:40;93.20;;;30.83;;
31798;SDS011;18374;51.136;3.502;2022-11-20T05:39:08;87.28;;;30.00;;
31798;SDS011;18374;51.136;3.502;2022-11-20T05:41:36;96.50;;;31.33;;
31798;SDS011;18374;51.136;3.502;2022-11-20T05:44:04;84.38;;;28.75;;
31798;SDS011;18374;51.136;3.502;2022-11-20T05:46:32;87.88;;;29.92;;
31798;SDS011;18374;51.136;3.502;2022-11-20T05:49:00;98.45;;;31.08;;
31798;SDS011;18374;51.136;3.502;2022-11-20T05:51:27;85.10;;;29.80;;
31798;SDS011;18374;51.136;3.502;2022-11-20T05:53:56;95.80;;;30.40;;
31798;SDS011;18374;51.136;3.502;2022-11-20T05:56:25;80.22;;;30.02;;
31798;SDS011;18374;51.136;3.502;2022-11-20T05:58:53;85.57;;;29.65;;
31798;SDS011;18374;51.136;3.502;2022-11-20T06:01:22;79.90;;;29.17;;
31798;SDS011;18374;51.136;3.502;2022-11-20T06:03:53;83.38;;;29.10;;
31798;SDS011;18374;51.136;3.502;2022-11-20T06:06:21;98.78;;;31.15;;
31798;SDS011;18374;51.136;3.502;2022-11-20T06:08:49;100.15;;;30.15;;
31798;SDS011;18374;51.136;3.502;2022-11-20T06:11:17;86.47;;;29.80;;
31798;SDS011;18374;51.136;3.502;2022-11-20T06:13:46;89.28;;;29.13;;
31798;SDS011;18374;51.136;3.502;2022-11-20T06:16:16;78.70;;;28.48;;
31798;SDS011;18374;51.136;3.502;2022-11-20T06:18:46;80.95;;;27.48;;
31798;SDS011;18374;51.136;3.502;2022-11-20T06:21:15;90.25;;;27.70;;
31798;SDS011;18374;51.136;3.502;2022-11-20T06:23:46;85.03;;;26.98;;
31798;SDS011;18374;51.136;3.502;2022-11-20T06:26:16;85.38;;;28.42;;
31798;SDS011;18374;51.136;3.502;2022-11-20T06:28:53;89.30;;;26.88;;
31798;SDS011;18374;51.136;3.502;2022-11-20T06:31:23;72.70;;;25.40;;
31798;SDS011;18374;51.136;3.502;2022-11-20T06:33:53;72.55;;;25.10;;
31798;SDS011;18374;51.136;3.502;2022-11-20T06:36:22;73.78;;;26.35;;
31798;SDS011;18374;51.136;3.502;2022-11-20T06:38:50;68.78;;;24.38;;
31798;SDS011;18374;51.136;3.502;2022-11-20T06:41:19;70.05;;;25.05;;
31798;SDS011;18374;51.136;3.502;2022-11-20T06:43:48;76.82;;;25.70;;
31798;SDS011;18374;51.136;3.502;2022-11-20T06:46:17;74.85;;;23.85;;
31798;SDS011;18374;51.136;3.502;2022-11-20T06:48:47;71.07;;;25.38;;
31798;SDS011;18374;51.136;3.502;2022-11-20T06:51:15;73.70;;;26.15;;
31798;SDS011;18374;51.136;3.502;2022-11-20T06:53:43;73.03;;;25.75;;
31798;SDS011;18374;51.136;3.502;2022-11-20T06:56:11;68.10;;;25.08;;
31798;SDS011;18374;51.136;3.502;2022-11-20T06:58:39;79.05;;;25.92;;
31798;SDS011;18374;51.136;3.502;2022-11-20T07:01:11;73.75;;;24.98;;
31798;SDS011;18374;51.136;3.502;2022-11-20T07:03:41;78.80;;;24.10;;
31798;SDS011;18374;51.136;3.502;2022-11-20T07:06:10;69.30;;;23.45;;
31798;SDS011;18374;51.136;3.502;2022-11-20T07:08:38;75.28;;;23.92;;
31798;SDS011;18374;51.136;3.502;2022-11-20T07:11:06;71.70;;;24.92;;
31798;SDS011;18374;51.136;3.502;2022-11-20T07:13:35;77.90;;;25.65;;
31798;SDS011;18374;51.136;3.502;2022-11-20T07:16:04;84.47;;;28.02;;
31798;SDS011;18374;51.136;3.502;2022-11-20T07:18:35;87.75;;;27.15;;
31798;SDS011;18374;51.136;3.502;2022-11-20T07:21:04;83.68;;;25.85;;
31798;SDS011;18374;51.136;3.502;2022-11-20T07:23:35;77.63;;;25.38;;
31798;SDS011;18374;51.136;3.502;2022-11-20T07:26:08;80.22;;;27.15;;
31798;SDS011;18374;51.136;3.502;2022-11-20T07:28:37;93.93;;;26.55;;
31798;SDS011;18374;51.136;3.502;2022-11-20T07:31:05;90.22;;;27.05;;
31798;SDS011;18374;51.136;3.502;2022-11-20T07:33:34;88.53;;;27.65;;
31798;SDS011;18374;51.136;3.502;2022-11-20T07:36:02;92.80;;;27.92;;
31798;SDS011;18374;51.136;3.502;2022-11-20T07:38:30;88.00;;;26.50;;
31798;SDS011;18374;51.136;3.502;2022-11-20T07:40:58;84.30;;;26.13;;
31798;SDS011;18374;51.136;3.502;2022-11-20T07:43:29;84.97;;;26.77;;
31798;SDS011;18374;51.136;3.502;2022-11-20T07:45:57;84.35;;;27.20;;
31798;SDS011;18374;51.136;3.502;2022-11-20T07:48:25;101.32;;;27.63;;
31798;SDS011;18374;51.136;3.502;2022-11-20T07:50:57;79.15;;;26.27;;
31798;SDS011;18374;51.136;3.502;2022-11-20T07:53:25;93.50;;;28.30;;
31798;SDS011;18374;51.136;3.502;2022-11-20T07:55:53;89.30;;;28.23;;
31798;SDS011;18374;51.136;3.502;2022-11-20T07:58:20;98.95;;;29.23;;
31798;SDS011;18374;51.136;3.502;2022-11-20T08:00:48;100.10;;;29.20;;
31798;SDS011;18374;51.136;3.502;2022-11-20T08:03:17;100.25;;;29.30;;
31798;SDS011;18374;51.136;3.502;2022-11-20T08:05:50;96.35;;;28.40;;
31798;SDS011;18374;51.136;3.502;2022-11-20T08:08:19;91.68;;;28.38;;
31798;SDS011;18374;51.136;3.502;2022-11-20T08:10:48;86.70;;;27.08;;
31798;SDS011;18374;51.136;3.502;2022-11-20T08:13:16;89.30;;;27.88;;
31798;SDS011;18374;51.136;3.502;2022-11-20T08:16:03;97.25;;;28.85;;
31798;SDS011;18374;51.136;3.502;2022-11-20T08:18:31;88.70;;;27.55;;
31798;SDS011;18374;51.136;3.502;2022-11-20T08:21:03;91.47;;;26.45;;
31798;SDS011;18374;51.136;3.502;2022-11-20T08:23:31;92.43;;;28.52;;
31798;SDS011;18374;51.136;3.502;2022-11-20T08:25:59;97.53;;;27.77;;
31798;SDS011;18374;51.136;3.502;2022-11-20T08:28:27;100.75;;;28.65;;
31798;SDS011;18374;51.136;3.502;2022-11-20T08:30:59;104.65;;;28.13;;
31798;SDS011;18374;51.136;3.502;2022-11-20T08:33:28;101.45;;;28.70;;
31798;SDS011;18374;51.136;3.502;2022-11-20T08:36:00;109.68;;;29.40;;
31798;SDS011;18374;51.136;3.502;2022-11-20T08:38:30;119.95;;;30.25;;
31798;SDS011;18374;51.136;3.502;2022-11-20T08:40:59;97.38;;;26.98;;
31798;SDS011;18374;51.136;3.502;2022-11-20T08:43:47;114.10;;;29.70;;
31798;SDS011;18374;51.136;3.502;2022-11-20T08:46:15;116.68;;;31.05;;
31798;SDS011;18374;51.136;3.502;2022-11-20T08:48:44;112.57;;;29.23;;
31798;SDS011;18374;51.136;3.502;2022-11-20T08:51:12;100.75;;;29.27;;
31798;SDS011;18374;51.136;3.502;2022-11-20T08:53:41;103.07;;;29.65;;
31798;SDS011;18374;51.136;3.502;2022-11-20T08:56:09;105.80;;;28.15;;
31798;SDS011;18374;51.136;3.502;2022-11-20T08:58:37;117.80;;;29.30;;
31798;SDS011;18374;51.136;3.502;2022-11-20T09:01:26;109.10;;;29.30;;
31798;SDS011;18374;51.136;3.502;2022-11-20T09:03:55;86.05;;;28.15;;
31798;SDS011;18374;51.136;3.502;2022-11-20T09:06:24;92.32;;;28.02;;
31798;SDS011;18374;51.136;3.502;2022-11-20T09:08:55;95.65;;;27.92;;
31798;SDS011;18374;51.136;3.502;2022-11-20T09:11:29;100.85;;;28.73;;
31798;SDS011;18374;51.136;3.502;2022-11-20T09:13:57;93.28;;;26.70;;
31798;SDS011;18374;51.136;3.502;2022-11-20T09:16:25;88.70;;;26.73;;
31798;SDS011;18374;51.136;3.502;2022-11-20T09:18:53;105.82;;;28.23;;
31798;SDS011;18374;51.136;3.502;2022-11-20T09:21:41;85.13;;;26.63;;
31798;SDS011;18374;51.136;3.502;2022-11-20T09:24:09;98.40;;;27.05;;
31798;SDS011;18374;51.136;3.502;2022-11-20T09:26:37;88.47;;;27.08;;
31798;SDS011;18374;51.136;3.502;2022-11-20T09:29:05;88.93;;;27.05;;
31798;SDS011;18374;51.136;3.502;2022-11-20T09:31:33;87.15;;;26.85;;
31798;SDS011;18374;51.136;3.502;2022-11-20T09:34:00;79.53;;;25.42;;
31798;SDS011;18374;51.136;3.502;2022-11-20T09:36:28;92.15;;;26.23;;
31798;SDS011;18374;51.136;3.502;2022-11-20T09:38:56;81.63;;;25.63;;
31798;SDS011;18374;51.136;3.502;2022-11-20T09:47:27;80.82;;;24.35;;
31798;SDS011;18374;51.136;3.502;2022-11-20T09:56:08;67.68;;;22.13;;
31798;SDS011;18374;51.136;3.502;2022-11-20T09:58:39;60.63;;;21.27;;
31798;SDS011;18374;51.136;3.502;2022-11-20T10:01:17;70.00;;;22.63;;
31798;SDS011;18374;51.136;3.502;2022-11-20T10:03:50;65.07;;;21.17;;
31798;SDS011;18374;51.136;3.502;2022-11-20T10:10:00;60.30;;;19.60;;
31798;SDS011;18374;51.136;3.502;2022-11-20T10:12:31;49.47;;;19.35;;
31798;SDS011;18374;51.136;3.502;2022-11-20T10:30:14;61.15;;;18.42;;
31798;SDS011;18374;51.136;3.502;2022-11-20T10:32:46;49.65;;;17.70;;
31798;SDS011;18374;51.136;3.502;2022-11-20T10:37:55;47.42;;;16.02;;
31798;SDS011;18374;51.136;3.502;2022-11-20T10:47:56;30.05;;;11.75;;
31798;SDS011;18374;51.136;3.502;2022-11-20T10:50:40;29.30;;;10.20;;
31798;SDS011;18374;51.136;3.502;2022-11-20T11:00:09;25.20;;;9.75;;
31798;SDS011;18374;51.136;3.502;2022-11-20T11:10:57;15.30;;;7.55;;
31798;SDS011;18374;51.136;3.502;2022-11-20T11:13:48;16.77;;;7.70;;
31798;SDS011;18374;51.136;3.502;2022-11-20T11:23:45;15.15;;;5.88;;
31798;SDS011;18374;51.136;3.502;2022-11-20T11:26:35;12.32;;;5.60;;
31798;SDS011;18374;51.136;3.502;2022-11-20T11:33:18;8.68;;;5.13;;
31798;SDS011;18374;51.136;3.502;2022-11-20T11:35:49;8.95;;;4.18;;
31798;SDS011;18374;51.136;3.502;2022-11-20T11:38:36;10.73;;;5.00;;
31798;SDS011;18374;51.136;3.502;2022-11-20T11:44:30;14.32;;;5.15;;
31798;SDS011;18374;51.136;3.502;2022-11-20T11:47:26;12.13;;;5.22;;
31798;SDS011;18374;51.136;3.502;2022-11-20T11:50:23;13.80;;;4.80;;
31798;SDS011;18374;51.136;3.502;2022-11-20T11:58:41;8.25;;;4.38;;
31798;SDS011;18374;51.136;3.502;2022-11-20T12:07:01;6.95;;;4.30;;
31798;SDS011;18374;51.136;3.502;2022-11-20T12:09:58;12.32;;;5.03;;
31798;SDS011;18374;51.136;3.502;2022-11-20T12:12:40;9.00;;;4.95;;
31798;SDS011;18374;51.136;3.502;2022-11-20T12:16:47;8.85;;;4.85;;
31798;SDS011;18374;51.136;3.502;2022-11-20T12:19:57;9.43;;;5.20;;
31798;SDS011;18374;51.136;3.502;2022-11-20T12:29:17;15.52;;;7.07;;
31798;SDS011;18374;51.136;3.502;2022-11-20T12:52:32;8.70;;;4.68;;
31798;SDS011;18374;51.136;3.502;2022-11-20T13:06:23;8.65;;;5.35;;
31798;SDS011;18374;51.136;3.502;2022-11-20T13:19:12;12.55;;;4.32;;
31798;SDS011;18374;51.136;3.502;2022-11-20T13:22:24;5.88;;;4.57;;
31798;SDS011;18374;51.136;3.502;2022-11-20T13:25:50;5.95;;;4.20;;
31798;SDS011;18374;51.136;3.502;2022-11-20T13:28:33;7.90;;;4.75;;
31798;SDS011;18374;51.136;3.502;2022-11-20T13:35:37;5.68;;;4.57;;
31798;SDS011;18374;51.136;3.502;2022-11-20T13:44:55;8.43;;;4.53;;
31798;SDS011;18374;51.136;3.502;2022-11-20T13:51:56;14.15;;;8.43;;
31798;SDS011;18374;51.136;3.502;2022-11-20T14:07:36;45.50;;;21.05;;
31798;SDS011;18374;51.136;3.502;2022-11-20T14:11:32;16.33;;;11.15;;
31798;SDS011;18374;51.136;3.502;2022-11-20T14:14:18;9.95;;;6.82;;
31798;SDS011;18374;51.136;3.502;2022-11-20T14:17:32;10.40;;;7.85;;
31798;SDS011;18374;51.136;3.502;2022-11-20T14:20:34;15.43;;;7.68;;
31798;SDS011;18374;51.136;3.502;2022-11-20T14:23:52;9.73;;;6.78;;
31798;SDS011;18374;51.136;3.502;2022-11-20T14:27:17;8.82;;;6.53;;
31798;SDS011;18374;51.136;3.502;2022-11-20T14:30:45;10.40;;;6.45;;
31798;SDS011;18374;51.136;3.502;2022-11-20T14:33:20;10.63;;;6.68;;
31798;SDS011;18374;51.136;3.502;2022-11-20T14:35:52;8.70;;;6.03;;
31798;SDS011;18374;51.136;3.502;2022-11-20T14:39:33;11.88;;;5.30;;
31798;SDS011;18374;51.136;3.502;2022-11-20T14:42:28;15.43;;;5.53;;
31798;SDS011;18374;51.136;3.502;2022-11-20T14:44:58;10.00;;;4.75;;
31798;SDS011;18374;51.136;3.502;2022-11-20T14:47:27;16.15;;;5.03;;
31798;SDS011;18374;51.136;3.502;2022-11-20T14:49:57;10.63;;;4.20;;
31798;SDS011;18374;51.136;3.502;2022-11-20T14:52:35;14.38;;;3.60;;
31798;SDS011;18374;51.136;3.502;2022-11-20T14:55:03;15.00;;;3.15;;
31798;SDS011;18374;51.136;3.502;2022-11-20T14:57:33;12.73;;;3.95;;
31798;SDS011;18374;51.136;3.502;2022-11-20T15:00:07;14.80;;;2.97;;
31798;SDS011;18374;51.136;3.502;2022-11-20T15:02:41;24.48;;;2.78;;
31798;SDS011;18374;51.136;3.502;2022-11-20T15:05:15;11.52;;;2.13;;
31798;SDS011;18374;51.136;3.502;2022-11-20T15:07:46;14.73;;;2.63;;
31798;SDS011;18374;51.136;3.502;2022-11-20T15:10:24;16.52;;;2.80;;
31798;SDS011;18374;51.136;3.502;2022-11-20T15:13:01;16.08;;;2.33;;
31798;SDS011;18374;51.136;3.502;2022-11-20T15:18:12;14.10;;;2.30;;
31798;SDS011;18374;51.136;3.502;2022-11-20T15:20:56;18.30;;;3.45;;
31798;SDS011;18374;51.136;3.502;2022-11-20T15:23:29;14.47;;;2.33;;
31798;SDS011;18374;51.136;3.502;2022-11-20T15:25:57;16.38;;;2.63;;
31798;SDS011;18374;51.136;3.502;2022-11-20T15:28:33;22.05;;;3.25;;
31798;SDS011;18374;51.136;3.502;2022-11-20T15:31:04;15.15;;;2.75;;
31798;SDS011;18374;51.136;3.502;2022-11-20T15:34:19;17.33;;;2.80;;
31798;SDS011;18374;51.136;3.502;2022-11-20T15:36:53;12.55;;;2.30;;
31798;SDS011;18374;51.136;3.502;2022-11-20T15:40:42;22.33;;;2.90;;
31798;SDS011;18374;51.136;3.502;2022-11-20T15:57:49;12.90;;;2.75;;
31798;SDS011;18374;51.136;3.502;2022-11-20T16:00:29;11.98;;;2.28;;
31798;SDS011;18374;51.136;3.502;2022-11-20T16:03:55;10.48;;;1.65;;
31798;SDS011;18374;51.136;3.502;2022-11-20T16:22:57;13.45;;;2.97;;
31798;SDS011;18374;51.136;3.502;2022-11-20T16:28:49;14.23;;;2.67;;
31798;SDS011;18374;51.136;3.502;2022-11-20T16:31:23;11.45;;;3.65;;
31798;SDS011;18374;51.136;3.502;2022-11-20T16:33:54;19.38;;;4.00;;
31798;SDS011;18374;51.136;3.502;2022-11-20T16:36:46;13.50;;;2.95;;
31798;SDS011;18374;51.136;3.502;2022-11-20T16:39:27;22.70;;;3.85;;
31798;SDS011;18374;51.136;3.502;2022-11-20T16:41:57;24.70;;;3.20;;
31798;SDS011;18374;51.136;3.502;2022-11-20T16:48:27;12.48;;;2.78;;
31798;SDS011;18374;51.136;3.502;2022-11-20T16:51:28;20.83;;;2.63;;
31798;SDS011;18374;51.136;3.502;2022-11-20T16:54:22;17.10;;;2.42;;
31798;SDS011;18374;51.136;3.502;2022-11-20T16:57:28;27.15;;;3.63;;
31798;SDS011;18374;51.136;3.502;2022-11-20T16:59:59;17.75;;;2.50;;
31798;SDS011;18374;51.136;3.502;2022-11-20T17:02:30;21.80;;;3.42;;
31798;SDS011;18374;51.136;3.502;2022-11-20T17:09:46;16.20;;;3.17;;
31798;SDS011;18374;51.136;3.502;2022-11-20T17:12:17;22.00;;;3.42;;
31798;SDS011;18374;51.136;3.502;2022-11-20T17:14:53;17.38;;;3.55;;
31798;SDS011;18374;51.136;3.502;2022-11-20T17:22:35;14.35;;;2.85;;
31798;SDS011;18374;51.136;3.502;2022-11-20T17:29:09;21.10;;;4.53;;
31798;SDS011;18374;51.136;3.502;2022-11-20T17:39:44;20.65;;;4.35;;
31798;SDS011;18374;51.136;3.502;2022-11-20T17:42:40;22.40;;;4.30;;
31798;SDS011;18374;51.136;3.502;2022-11-20T17:46:35;22.98;;;5.90;;
31798;SDS011;18374;51.136;3.502;2022-11-20T17:51:09;19.10;;;4.38;;
31798;SDS011;18374;51.136;3.502;2022-11-20T17:59:46;15.32;;;3.60;;
31798;SDS011;18374;51.136;3.502;2022-11-20T18:03:23;14.30;;;2.83;;
31798;SDS011;18374;51.136;3.502;2022-11-20T18:07:22;17.63;;;3.15;;
31798;SDS011;18374;51.136;3.502;2022-11-20T18:41:26;17.23;;;5.65;;
31798;SDS011;18374;51.136;3.502;2022-11-20T18:44:15;18.77;;;6.35;;
31798;SDS011;18374;51.136;3.502;2022-11-20T18:47:05;18.85;;;6.68;;
31798;SDS011;18374;51.136;3.502;2022-11-20T18:49:44;22.40;;;6.88;;
31798;SDS011;18374;51.136;3.502;2022-11-20T18:54:56;24.05;;;7.70;;
31798;SDS011;18374;51.136;3.502;2022-11-20T18:57:25;22.38;;;7.07;;
31798;SDS011;18374;51.136;3.502;2022-11-20T18:59:54;21.25;;;6.35;;
31798;SDS011;18374;51.136;3.502;2022-11-20T19:02:32;25.83;;;5.60;;
31798;SDS011;18374;51.136;3.502;2022-11-20T19:05:06;27.48;;;5.70;;
31798;SDS011;18374;51.136;3.502;2022-11-20T19:07:36;24.45;;;5.38;;
31798;SDS011;18374;51.136;3.502;2022-11-20T19:10:04;31.15;;;6.78;;
31798;SDS011;18374;51.136;3.502;2022-11-20T19:12:33;16.73;;;5.60;;
31798;SDS011;18374;51.136;3.502;2022-11-20T19:15:01;25.38;;;4.95;;
31798;SDS011;18374;51.136;3.502;2022-11-20T19:17:29;26.50;;;4.65;;
31798;SDS011;18374;51.136;3.502;2022-11-20T19:19:59;24.70;;;4.50;;
31798;SDS011;18374;51.136;3.502;2022-11-20T19:22:27;19.98;;;4.32;;
31798;SDS011;18374;51.136;3.502;2022-11-20T19:24:55;17.27;;;3.97;;
31798;SDS011;18374;51.136;3.502;2022-11-20T19:27:22;16.08;;;4.10;;
31798;SDS011;18374;51.136;3.502;2022-11-20T19:29:50;22.55;;;4.57;;
31798;SDS011;18374;51.136;3.502;2022-11-20T19:32:17;21.08;;;4.53;;
31798;SDS011;18374;51.136;3.502;2022-11-20T19:34:45;16.67;;;4.03;;
31798;SDS011;18374;51.136;3.502;2022-11-20T19:37:13;15.52;;;4.35;;
31798;SDS011;18374;51.136;3.502;2022-11-20T19:39:40;22.58;;;5.35;;